sensor_id;sensor_type;location;lat;lon;timestamp;P1;durP1;ratioP1;P2;durP2;ratioP2
11671;SDS011;5892;43.412;24.612;2022-08-05T00:01:29;4.67;;;2.80;;
11671;SDS011;5892;43.412;24.612;2022-08-05T00:03:57;3.27;;;2.80;;
11671;SDS011;5892;43.412;24.612;2022-08-05T00:06:24;6.87;;;3.03;;
11671;SDS011;5892;43.412;24.612;2022-08-05T00:08:51;7.90;;;2.80;;
11671;SDS011;5892;43.412;24.612;2022-08-05T00:11:18;4.53;;;2.80;;
11671;SDS011;5892;43.412;24.612;2022-08-05T00:13:45;5.13;;;2.87;;
11671;SDS011;5892;43.412;24.612;2022-08-05T00:16:12;7.20;;;2.90;;
11671;SDS011;5892;43.412;24.612;2022-08-05T00:18:41;3.30;;;3.00;;
11671;SDS011;5892;43.412;24.612;2022-08-05T00:21:10;3.10;;;2.80;;
11671;SDS011;5892;43.412;24.612;2022-08-05T00:23:37;3.83;;;2.60;;
11671;SDS011;5892;43.412;24.612;2022-08-05T00:26:05;3.07;;;2.57;;
11671;SDS011;5892;43.412;24.612;2022-08-05T00:28:33;2.97;;;2.67;;
11671;SDS011;5892;43.412;24.612;2022-08-05T00:31:01;4.73;;;2.67;;
11671;SDS011;5892;43.412;24.612;2022-08-05T00:33:28;3.83;;;2.60;;
11671;SDS011;5892;43.412;24.612;2022-08-05T00:35:55;2.73;;;2.53;;
11671;SDS011;5892;43.412;24.612;2022-08-05T00:38:23;2.53;;;2.33;;
11671;SDS011;5892;43.412;24.612;2022-08-05T00:40:50;3.17;;;2.60;;
11671;SDS011;5892;43.412;24.612;2022-08-05T00:43:19;3.53;;;2.80;;
11671;SDS011;5892;43.412;24.612;2022-08-05T00:45:46;3.60;;;2.50;;
11671;SDS011;5892;43.412;24.612;2022-08-05T00:48:14;2.70;;;2.50;;
11671;SDS011;5892;43.412;24.612;2022-08-05T00:50:43;5.57;;;2.53;;
11671;SDS011;5892;43.412;24.612;2022-08-05T00:53:11;2.97;;;2.23;;
11671;SDS011;5892;43.412;24.612;2022-08-05T00:55:41;5.00;;;2.57;;
11671;SDS011;5892;43.412;24.612;2022-08-05T00:58:09;5.70;;;2.50;;
11671;SDS011;5892;43.412;24.612;2022-08-05T01:00:37;5.83;;;2.53;;
11671;SDS011;5892;43.412;24.612;2022-08-05T01:03:04;4.40;;;2.50;;
11671;SDS011;5892;43.412;24.612;2022-08-05T01:05:32;4.57;;;2.50;;
11671;SDS011;5892;43.412;24.612;2022-08-05T01:07:59;6.87;;;2.67;;
11671;SDS011;5892;43.412;24.612;2022-08-05T01:10:26;3.47;;;2.40;;
11671;SDS011;5892;43.412;24.612;2022-08-05T01:13:05;8.50;;;2.40;;
11671;SDS011;5892;43.412;24.612;2022-08-05T01:15:38;3.03;;;2.70;;
11671;SDS011;5892;43.412;24.612;2022-08-05T01:18:12;2.70;;;2.43;;
11671;SDS011;5892;43.412;24.612;2022-08-05T01:20:47;4.67;;;2.37;;
11671;SDS011;5892;43.412;24.612;2022-08-05T01:23:22;2.83;;;2.57;;
11671;SDS011;5892;43.412;24.612;2022-08-05T01:26:09;2.53;;;2.33;;
11671;SDS011;5892;43.412;24.612;2022-08-05T01:28:49;5.13;;;2.50;;
11671;SDS011;5892;43.412;24.612;2022-08-05T01:31:21;3.47;;;2.67;;
11671;SDS011;5892;43.412;24.612;2022-08-05T01:33:54;3.43;;;2.70;;
11671;SDS011;5892;43.412;24.612;2022-08-05T01:36:25;4.53;;;2.87;;
11671;SDS011;5892;43.412;24.612;2022-08-05T01:38:58;3.60;;;2.40;;
11671;SDS011;5892;43.412;24.612;2022-08-05T01:41:26;7.53;;;2.67;;
11671;SDS011;5892;43.412;24.612;2022-08-05T01:43:57;3.57;;;2.80;;
11671;SDS011;5892;43.412;24.612;2022-08-05T01:46:26;3.90;;;2.50;;
11671;SDS011;5892;43.412;24.612;2022-08-05T01:48:56;4.93;;;2.40;;
11671;SDS011;5892;43.412;24.612;2022-08-05T01:51:25;3.03;;;2.73;;
11671;SDS011;5892;43.412;24.612;2022-08-05T01:53:56;4.87;;;2.60;;
11671;SDS011;5892;43.412;24.612;2022-08-05T01:56:26;3.30;;;2.70;;
11671;SDS011;5892;43.412;24.612;2022-08-05T01:58:55;3.20;;;2.90;;
11671;SDS011;5892;43.412;24.612;2022-08-05T02:01:26;9.73;;;2.97;;
11671;SDS011;5892;43.412;24.612;2022-08-05T02:03:53;3.33;;;2.63;;
11671;SDS011;5892;43.412;24.612;2022-08-05T02:06:22;3.33;;;2.80;;
11671;SDS011;5892;43.412;24.612;2022-08-05T02:08:49;2.97;;;2.40;;
11671;SDS011;5892;43.412;24.612;2022-08-05T02:11:16;9.63;;;3.17;;
11671;SDS011;5892;43.412;24.612;2022-08-05T02:13:46;6.60;;;2.90;;
11671;SDS011;5892;43.412;24.612;2022-08-05T02:16:21;4.63;;;2.90;;
11671;SDS011;5892;43.412;24.612;2022-08-05T02:18:53;7.17;;;2.73;;
11671;SDS011;5892;43.412;24.612;2022-08-05T02:21:24;3.80;;;2.70;;
11671;SDS011;5892;43.412;24.612;2022-08-05T02:23:56;3.83;;;2.80;;
11671;SDS011;5892;43.412;24.612;2022-08-05T02:26:32;5.93;;;2.70;;
11671;SDS011;5892;43.412;24.612;2022-08-05T02:29:03;5.07;;;3.17;;
11671;SDS011;5892;43.412;24.612;2022-08-05T02:31:33;6.40;;;2.97;;
11671;SDS011;5892;43.412;24.612;2022-08-05T02:34:03;4.63;;;2.63;;
11671;SDS011;5892;43.412;24.612;2022-08-05T02:36:33;5.97;;;2.97;;
11671;SDS011;5892;43.412;24.612;2022-08-05T02:39:03;5.27;;;2.90;;
11671;SDS011;5892;43.412;24.612;2022-08-05T02:41:33;4.90;;;2.87;;
11671;SDS011;5892;43.412;24.612;2022-08-05T02:44:02;5.93;;;3.00;;
11671;SDS011;5892;43.412;24.612;2022-08-05T02:46:33;6.60;;;2.73;;
11671;SDS011;5892;43.412;24.612;2022-08-05T02:49:01;3.90;;;3.00;;
11671;SDS011;5892;43.412;24.612;2022-08-05T02:51:29;8.40;;;2.77;;
11671;SDS011;5892;43.412;24.612;2022-08-05T02:53:57;5.27;;;2.70;;
11671;SDS011;5892;43.412;24.612;2022-08-05T02:56:25;3.93;;;2.63;;
11671;SDS011;5892;43.412;24.612;2022-08-05T02:58:54;4.50;;;2.77;;
11671;SDS011;5892;43.412;24.612;2022-08-05T03:01:23;3.83;;;2.70;;
11671;SDS011;5892;43.412;24.612;2022-08-05T03:03:53;3.73;;;2.70;;
11671;SDS011;5892;43.412;24.612;2022-08-05T03:06:24;5.73;;;2.80;;
11671;SDS011;5892;43.412;24.612;2022-08-05T03:08:52;6.27;;;2.80;;
11671;SDS011;5892;43.412;24.612;2022-08-05T03:11:21;4.27;;;2.70;;
11671;SDS011;5892;43.412;24.612;2022-08-05T03:13:49;7.27;;;2.90;;
11671;SDS011;5892;43.412;24.612;2022-08-05T03:16:17;5.03;;;2.50;;
11671;SDS011;5892;43.412;24.612;2022-08-05T03:18:44;4.50;;;2.50;;
11671;SDS011;5892;43.412;24.612;2022-08-05T03:21:13;4.53;;;2.70;;
11671;SDS011;5892;43.412;24.612;2022-08-05T03:23:40;4.63;;;2.90;;
11671;SDS011;5892;43.412;24.612;2022-08-05T03:26:09;4.53;;;2.60;;
11671;SDS011;5892;43.412;24.612;2022-08-05T03:28:36;3.73;;;2.60;;
11671;SDS011;5892;43.412;24.612;2022-08-05T03:31:03;5.73;;;2.83;;
11671;SDS011;5892;43.412;24.612;2022-08-05T03:33:30;3.60;;;2.70;;
11671;SDS011;5892;43.412;24.612;2022-08-05T03:35:58;5.10;;;2.90;;
11671;SDS011;5892;43.412;24.612;2022-08-05T03:38:26;4.87;;;2.60;;
11671;SDS011;5892;43.412;24.612;2022-08-05T03:40:53;4.50;;;2.53;;
11671;SDS011;5892;43.412;24.612;2022-08-05T03:43:20;6.57;;;2.80;;
11671;SDS011;5892;43.412;24.612;2022-08-05T03:45:50;4.50;;;2.50;;
11671;SDS011;5892;43.412;24.612;2022-08-05T03:48:18;4.17;;;2.70;;
11671;SDS011;5892;43.412;24.612;2022-08-05T03:50:48;3.80;;;2.70;;
11671;SDS011;5892;43.412;24.612;2022-08-05T03:53:20;7.50;;;2.57;;
11671;SDS011;5892;43.412;24.612;2022-08-05T03:55:57;8.00;;;2.80;;
11671;SDS011;5892;43.412;24.612;2022-08-05T03:58:28;9.17;;;3.20;;
11671;SDS011;5892;43.412;24.612;2022-08-05T04:00:59;6.30;;;3.17;;
11671;SDS011;5892;43.412;24.612;2022-08-05T04:03:27;10.63;;;2.80;;
11671;SDS011;5892;43.412;24.612;2022-08-05T04:06:00;5.23;;;2.70;;
11671;SDS011;5892;43.412;24.612;2022-08-05T04:08:27;4.90;;;2.73;;
11671;SDS011;5892;43.412;24.612;2022-08-05T04:10:55;6.20;;;2.80;;
11671;SDS011;5892;43.412;24.612;2022-08-05T04:13:24;7.20;;;3.00;;
11671;SDS011;5892;43.412;24.612;2022-08-05T04:15:51;8.53;;;2.90;;
11671;SDS011;5892;43.412;24.612;2022-08-05T04:18:19;10.37;;;3.60;;
11671;SDS011;5892;43.412;24.612;2022-08-05T04:20:51;7.17;;;3.20;;
11671;SDS011;5892;43.412;24.612;2022-08-05T04:23:18;5.70;;;2.80;;
11671;SDS011;5892;43.412;24.612;2022-08-05T04:25:47;4.47;;;2.90;;
11671;SDS011;5892;43.412;24.612;2022-08-05T04:28:13;5.50;;;2.90;;
11671;SDS011;5892;43.412;24.612;2022-08-05T04:30:42;5.80;;;3.53;;
11671;SDS011;5892;43.412;24.612;2022-08-05T04:33:09;6.43;;;3.40;;
11671;SDS011;5892;43.412;24.612;2022-08-05T04:35:35;6.53;;;3.13;;
11671;SDS011;5892;43.412;24.612;2022-08-05T04:38:02;9.07;;;3.17;;
11671;SDS011;5892;43.412;24.612;2022-08-05T04:40:31;8.20;;;3.10;;
11671;SDS011;5892;43.412;24.612;2022-08-05T04:42:59;3.57;;;3.10;;
11671;SDS011;5892;43.412;24.612;2022-08-05T04:45:26;10.43;;;3.20;;
11671;SDS011;5892;43.412;24.612;2022-08-05T04:47:54;7.13;;;3.00;;
11671;SDS011;5892;43.412;24.612;2022-08-05T04:50:28;4.93;;;3.10;;
11671;SDS011;5892;43.412;24.612;2022-08-05T04:52:55;6.63;;;3.50;;
11671;SDS011;5892;43.412;24.612;2022-08-05T04:55:22;9.00;;;3.50;;
11671;SDS011;5892;43.412;24.612;2022-08-05T04:57:49;10.03;;;3.53;;
11671;SDS011;5892;43.412;24.612;2022-08-05T05:00:17;10.67;;;3.80;;
11671;SDS011;5892;43.412;24.612;2022-08-05T05:02:45;9.37;;;3.60;;
11671;SDS011;5892;43.412;24.612;2022-08-05T05:05:13;10.53;;;4.53;;
11671;SDS011;5892;43.412;24.612;2022-08-05T05:07:40;12.90;;;4.90;;
11671;SDS011;5892;43.412;24.612;2022-08-05T05:10:07;15.37;;;4.80;;
11671;SDS011;5892;43.412;24.612;2022-08-05T05:12:34;14.13;;;4.70;;
11671;SDS011;5892;43.412;24.612;2022-08-05T05:15:01;9.50;;;4.97;;
11671;SDS011;5892;43.412;24.612;2022-08-05T05:17:28;17.23;;;5.57;;
11671;SDS011;5892;43.412;24.612;2022-08-05T05:20:03;12.10;;;4.93;;
11671;SDS011;5892;43.412;24.612;2022-08-05T05:22:33;14.10;;;5.60;;
11671;SDS011;5892;43.412;24.612;2022-08-05T05:25:00;19.10;;;6.10;;
11671;SDS011;5892;43.412;24.612;2022-08-05T05:27:28;18.93;;;5.43;;
11671;SDS011;5892;43.412;24.612;2022-08-05T05:29:56;19.87;;;5.93;;
11671;SDS011;5892;43.412;24.612;2022-08-05T05:32:23;23.97;;;6.03;;
11671;SDS011;5892;43.412;24.612;2022-08-05T05:34:50;16.77;;;6.40;;
11671;SDS011;5892;43.412;24.612;2022-08-05T05:37:17;20.70;;;6.67;;
11671;SDS011;5892;43.412;24.612;2022-08-05T05:39:45;21.80;;;7.23;;
11671;SDS011;5892;43.412;24.612;2022-08-05T05:42:12;17.67;;;6.57;;
11671;SDS011;5892;43.412;24.612;2022-08-05T05:44:39;16.60;;;6.83;;
11671;SDS011;5892;43.412;24.612;2022-08-05T05:47:06;21.23;;;6.10;;
11671;SDS011;5892;43.412;24.612;2022-08-05T05:49:33;20.33;;;6.30;;
11671;SDS011;5892;43.412;24.612;2022-08-05T05:52:00;16.17;;;6.03;;
11671;SDS011;5892;43.412;24.612;2022-08-05T05:54:27;15.73;;;6.17;;
11671;SDS011;5892;43.412;24.612;2022-08-05T05:56:55;11.77;;;5.53;;
11671;SDS011;5892;43.412;24.612;2022-08-05T05:59:22;10.80;;;5.13;;
11671;SDS011;5892;43.412;24.612;2022-08-05T06:01:49;18.43;;;5.77;;
11671;SDS011;5892;43.412;24.612;2022-08-05T06:04:16;13.87;;;5.60;;
11671;SDS011;5892;43.412;24.612;2022-08-05T06:06:45;11.03;;;5.47;;
11671;SDS011;5892;43.412;24.612;2022-08-05T06:09:12;13.07;;;5.40;;
11671;SDS011;5892;43.412;24.612;2022-08-05T06:11:40;17.33;;;5.80;;
11671;SDS011;5892;43.412;24.612;2022-08-05T06:14:08;30.53;;;6.33;;
11671;SDS011;5892;43.412;24.612;2022-08-05T06:16:35;16.07;;;5.60;;
11671;SDS011;5892;43.412;24.612;2022-08-05T06:19:02;17.43;;;5.83;;
11671;SDS011;5892;43.412;24.612;2022-08-05T06:21:29;11.37;;;4.47;;
11671;SDS011;5892;43.412;24.612;2022-08-05T06:23:56;13.83;;;4.40;;
11671;SDS011;5892;43.412;24.612;2022-08-05T06:26:24;11.57;;;4.60;;
11671;SDS011;5892;43.412;24.612;2022-08-05T06:28:51;11.57;;;4.13;;
11671;SDS011;5892;43.412;24.612;2022-08-05T06:31:19;19.80;;;5.40;;
11671;SDS011;5892;43.412;24.612;2022-08-05T06:33:46;8.13;;;2.80;;
11671;SDS011;5892;43.412;24.612;2022-08-05T06:36:13;8.17;;;2.90;;
11671;SDS011;5892;43.412;24.612;2022-08-05T06:38:40;2.97;;;2.20;;
11671;SDS011;5892;43.412;24.612;2022-08-05T06:41:07;4.53;;;2.13;;
11671;SDS011;5892;43.412;24.612;2022-08-05T06:43:34;5.93;;;2.20;;
11671;SDS011;5892;43.412;24.612;2022-08-05T06:46:01;5.77;;;2.50;;
11671;SDS011;5892;43.412;24.612;2022-08-05T06:48:29;3.40;;;2.20;;
11671;SDS011;5892;43.412;24.612;2022-08-05T06:50:59;4.73;;;2.27;;
11671;SDS011;5892;43.412;24.612;2022-08-05T06:53:26;7.27;;;2.33;;
11671;SDS011;5892;43.412;24.612;2022-08-05T06:55:53;8.27;;;2.43;;
11671;SDS011;5892;43.412;24.612;2022-08-05T06:58:20;7.40;;;2.10;;
11671;SDS011;5892;43.412;24.612;2022-08-05T07:00:47;7.37;;;2.43;;
11671;SDS011;5892;43.412;24.612;2022-08-05T07:03:14;4.10;;;2.00;;
11671;SDS011;5892;43.412;24.612;2022-08-05T07:05:42;7.13;;;2.10;;
11671;SDS011;5892;43.412;24.612;2022-08-05T07:08:09;4.35;;;2.10;;
11671;SDS011;5892;43.412;24.612;2022-08-05T07:10:36;4.43;;;2.20;;
11671;SDS011;5892;43.412;24.612;2022-08-05T07:13:03;5.23;;;2.10;;
11671;SDS011;5892;43.412;24.612;2022-08-05T07:15:48;3.83;;;2.00;;
11671;SDS011;5892;43.412;24.612;2022-08-05T07:18:32;2.43;;;2.00;;
11671;SDS011;5892;43.412;24.612;2022-08-05T07:21:00;6.50;;;2.20;;
11671;SDS011;5892;43.412;24.612;2022-08-05T07:23:28;5.22;;;2.20;;
11671;SDS011;5892;43.412;24.612;2022-08-05T07:25:55;6.95;;;2.20;;
11671;SDS011;5892;43.412;24.612;2022-08-05T07:28:21;8.25;;;2.15;;
11671;SDS011;5892;43.412;24.612;2022-08-05T07:30:49;3.75;;;2.17;;
11671;SDS011;5892;43.412;24.612;2022-08-05T07:33:16;6.33;;;2.20;;
11671;SDS011;5892;43.412;24.612;2022-08-05T07:35:45;3.55;;;2.28;;
11671;SDS011;5892;43.412;24.612;2022-08-05T07:38:14;4.87;;;2.20;;
11671;SDS011;5892;43.412;24.612;2022-08-05T07:40:41;9.02;;;2.50;;
11671;SDS011;5892;43.412;24.612;2022-08-05T07:43:09;5.25;;;2.10;;
11671;SDS011;5892;43.412;24.612;2022-08-05T07:45:35;4.00;;;2.20;;
11671;SDS011;5892;43.412;24.612;2022-08-05T07:48:03;3.80;;;2.20;;
11671;SDS011;5892;43.412;24.612;2022-08-05T07:50:30;2.80;;;2.00;;
11671;SDS011;5892;43.412;24.612;2022-08-05T07:52:57;3.10;;;2.10;;
11671;SDS011;5892;43.412;24.612;2022-08-05T07:55:25;4.07;;;2.10;;
11671;SDS011;5892;43.412;24.612;2022-08-05T07:57:52;2.10;;;1.90;;
11671;SDS011;5892;43.412;24.612;2022-08-05T08:00:19;2.47;;;2.10;;
11671;SDS011;5892;43.412;24.612;2022-08-05T08:02:46;2.67;;;1.98;;
11671;SDS011;5892;43.412;24.612;2022-08-05T08:05:14;3.87;;;2.23;;
11671;SDS011;5892;43.412;24.612;2022-08-05T08:07:41;4.93;;;1.90;;
11671;SDS011;5892;43.412;24.612;2022-08-05T08:10:08;6.95;;;2.30;;
11671;SDS011;5892;43.412;24.612;2022-08-05T08:12:37;3.38;;;2.00;;
11671;SDS011;5892;43.412;24.612;2022-08-05T08:15:04;8.57;;;2.03;;
11671;SDS011;5892;43.412;24.612;2022-08-05T08:17:32;2.30;;;1.90;;
11671;SDS011;5892;43.412;24.612;2022-08-05T08:19:59;2.67;;;2.00;;
11671;SDS011;5892;43.412;24.612;2022-08-05T08:22:29;2.63;;;2.00;;
11671;SDS011;5892;43.412;24.612;2022-08-05T08:24:56;2.28;;;2.00;;
11671;SDS011;5892;43.412;24.612;2022-08-05T08:27:23;3.33;;;2.05;;
11671;SDS011;5892;43.412;24.612;2022-08-05T08:29:51;3.05;;;1.98;;
11671;SDS011;5892;43.412;24.612;2022-08-05T08:32:18;1.75;;;1.65;;
11671;SDS011;5892;43.412;24.612;2022-08-05T08:34:45;2.92;;;2.10;;
11671;SDS011;5892;43.412;24.612;2022-08-05T08:37:12;3.88;;;2.17;;
11671;SDS011;5892;43.412;24.612;2022-08-05T08:39:39;5.43;;;2.50;;
11671;SDS011;5892;43.412;24.612;2022-08-05T08:42:07;4.03;;;2.20;;
11671;SDS011;5892;43.412;24.612;2022-08-05T08:44:35;4.97;;;2.28;;
11671;SDS011;5892;43.412;24.612;2022-08-05T08:47:07;5.93;;;2.00;;
11671;SDS011;5892;43.412;24.612;2022-08-05T08:49:34;9.13;;;2.17;;
11671;SDS011;5892;43.412;24.612;2022-08-05T08:52:06;1.90;;;1.63;;
11671;SDS011;5892;43.412;24.612;2022-08-05T08:54:38;5.45;;;2.00;;
11671;SDS011;5892;43.412;24.612;2022-08-05T08:57:05;5.22;;;2.00;;
11671;SDS011;5892;43.412;24.612;2022-08-05T08:59:33;2.70;;;2.10;;
11671;SDS011;5892;43.412;24.612;2022-08-05T09:02:03;3.22;;;2.22;;
11671;SDS011;5892;43.412;24.612;2022-08-05T09:04:32;5.40;;;2.20;;
11671;SDS011;5892;43.412;24.612;2022-08-05T09:07:02;3.85;;;2.00;;
11671;SDS011;5892;43.412;24.612;2022-08-05T09:09:30;4.63;;;2.20;;
11671;SDS011;5892;43.412;24.612;2022-08-05T09:11:57;1.75;;;1.65;;
11671;SDS011;5892;43.412;24.612;2022-08-05T09:14:24;6.90;;;2.35;;
11671;SDS011;5892;43.412;24.612;2022-08-05T09:16:52;4.10;;;2.00;;
11671;SDS011;5892;43.412;24.612;2022-08-05T09:19:22;4.07;;;2.00;;
11671;SDS011;5892;43.412;24.612;2022-08-05T09:21:51;9.77;;;2.50;;
11671;SDS011;5892;43.412;24.612;2022-08-05T09:24:19;9.50;;;2.45;;
11671;SDS011;5892;43.412;24.612;2022-08-05T09:26:46;3.55;;;2.10;;
11671;SDS011;5892;43.412;24.612;2022-08-05T09:29:17;5.88;;;2.67;;
11671;SDS011;5892;43.412;24.612;2022-08-05T09:31:59;6.28;;;2.10;;
11671;SDS011;5892;43.412;24.612;2022-08-05T09:34:30;3.03;;;1.90;;
11671;SDS011;5892;43.412;24.612;2022-08-05T09:37:15;4.75;;;2.30;;
11671;SDS011;5892;43.412;24.612;2022-08-05T09:39:43;5.07;;;2.20;;
11671;SDS011;5892;43.412;24.612;2022-08-05T09:42:10;2.13;;;1.90;;
11671;SDS011;5892;43.412;24.612;2022-08-05T09:44:40;2.10;;;1.98;;
11671;SDS011;5892;43.412;24.612;2022-08-05T09:47:08;7.10;;;2.10;;
11671;SDS011;5892;43.412;24.612;2022-08-05T09:49:42;4.38;;;1.98;;
11671;SDS011;5892;43.412;24.612;2022-08-05T09:52:21;1.88;;;1.65;;
11671;SDS011;5892;43.412;24.612;2022-08-05T09:54:54;4.00;;;1.95;;
11671;SDS011;5892;43.412;24.612;2022-08-05T09:57:28;3.25;;;1.90;;
11671;SDS011;5892;43.412;24.612;2022-08-05T09:59:57;2.05;;;1.85;;
11671;SDS011;5892;43.412;24.612;2022-08-05T10:02:35;2.30;;;2.08;;
11671;SDS011;5892;43.412;24.612;2022-08-05T10:05:09;3.30;;;2.00;;
11671;SDS011;5892;43.412;24.612;2022-08-05T10:07:50;2.45;;;2.20;;
11671;SDS011;5892;43.412;24.612;2022-08-05T10:10:19;4.22;;;2.10;;
11671;SDS011;5892;43.412;24.612;2022-08-05T10:12:48;5.90;;;2.10;;
11671;SDS011;5892;43.412;24.612;2022-08-05T10:15:19;2.28;;;1.90;;
11671;SDS011;5892;43.412;24.612;2022-08-05T10:18:08;3.60;;;2.00;;
11671;SDS011;5892;43.412;24.612;2022-08-05T10:20:38;3.15;;;1.90;;
11671;SDS011;5892;43.412;24.612;2022-08-05T10:23:08;2.22;;;1.88;;
11671;SDS011;5892;43.412;24.612;2022-08-05T10:25:37;4.40;;;1.92;;
11671;SDS011;5892;43.412;24.612;2022-08-05T10:28:04;3.47;;;1.88;;
11671;SDS011;5892;43.412;24.612;2022-08-05T10:30:31;2.10;;;2.00;;
11671;SDS011;5892;43.412;24.612;2022-08-05T10:32:59;2.95;;;2.00;;
11671;SDS011;5892;43.412;24.612;2022-08-05T10:35:26;4.30;;;2.10;;
11671;SDS011;5892;43.412;24.612;2022-08-05T10:37:54;3.63;;;1.90;;
11671;SDS011;5892;43.412;24.612;2022-08-05T10:40:27;3.95;;;2.00;;
11671;SDS011;5892;43.412;24.612;2022-08-05T10:43:00;5.20;;;2.35;;
11671;SDS011;5892;43.412;24.612;2022-08-05T10:45:32;2.20;;;1.80;;
11671;SDS011;5892;43.412;24.612;2022-08-05T10:50:56;3.20;;;2.17;;
11671;SDS011;5892;43.412;24.612;2022-08-05T10:53:36;4.07;;;2.53;;
11671;SDS011;5892;43.412;24.612;2022-08-05T10:56:08;4.97;;;2.00;;
11671;SDS011;5892;43.412;24.612;2022-08-05T11:01:32;3.72;;;2.05;;
11671;SDS011;5892;43.412;24.612;2022-08-05T11:04:02;3.33;;;2.08;;
11671;SDS011;5892;43.412;24.612;2022-08-05T11:06:33;6.28;;;2.20;;
11671;SDS011;5892;43.412;24.612;2022-08-05T11:09:11;3.97;;;2.30;;
11671;SDS011;5892;43.412;24.612;2022-08-05T11:11:42;3.38;;;1.90;;
11671;SDS011;5892;43.412;24.612;2022-08-05T11:14:11;5.15;;;2.10;;
11671;SDS011;5892;43.412;24.612;2022-08-05T11:16:38;3.08;;;1.88;;
11671;SDS011;5892;43.412;24.612;2022-08-05T11:19:23;3.33;;;1.90;;
11671;SDS011;5892;43.412;24.612;2022-08-05T11:21:51;2.33;;;1.98;;
11671;SDS011;5892;43.412;24.612;2022-08-05T11:24:21;3.70;;;2.17;;
11671;SDS011;5892;43.412;24.612;2022-08-05T11:26:49;3.33;;;1.85;;
11671;SDS011;5892;43.412;24.612;2022-08-05T11:29:58;4.70;;;2.20;;
11671;SDS011;5892;43.412;24.612;2022-08-05T11:32:25;2.50;;;2.10;;
11671;SDS011;5892;43.412;24.612;2022-08-05T11:34:53;2.92;;;2.20;;
11671;SDS011;5892;43.412;24.612;2022-08-05T11:43:26;2.92;;;1.98;;
11671;SDS011;5892;43.412;24.612;2022-08-05T11:45:53;2.05;;;1.80;;
11671;SDS011;5892;43.412;24.612;2022-08-05T11:48:20;2.17;;;2.00;;
11671;SDS011;5892;43.412;24.612;2022-08-05T11:50:48;3.55;;;2.03;;
11671;SDS011;5892;43.412;24.612;2022-08-05T11:53:15;4.32;;;2.10;;
11671;SDS011;5892;43.412;24.612;2022-08-05T11:55:52;4.60;;;2.03;;
11671;SDS011;5892;43.412;24.612;2022-08-05T11:58:25;6.60;;;2.55;;
11671;SDS011;5892;43.412;24.612;2022-08-05T12:01:00;21.58;;;4.50;;
11671;SDS011;5892;43.412;24.612;2022-08-05T12:03:28;11.70;;;2.97;;
11671;SDS011;5892;43.412;24.612;2022-08-05T12:05:59;11.15;;;3.13;;
11671;SDS011;5892;43.412;24.612;2022-08-05T12:08:27;3.03;;;2.00;;
11671;SDS011;5892;43.412;24.612;2022-08-05T12:10:54;2.88;;;2.00;;
11671;SDS011;5892;43.412;24.612;2022-08-05T12:13:25;2.38;;;2.05;;
11671;SDS011;5892;43.412;24.612;2022-08-05T12:15:52;3.40;;;2.20;;
11671;SDS011;5892;43.412;24.612;2022-08-05T12:18:26;3.05;;;2.70;;
11671;SDS011;5892;43.412;24.612;2022-08-05T12:20:54;2.10;;;2.00;;
11671;SDS011;5892;43.412;24.612;2022-08-05T12:23:21;4.13;;;1.90;;
11671;SDS011;5892;43.412;24.612;2022-08-05T12:25:49;2.60;;;2.40;;
11671;SDS011;5892;43.412;24.612;2022-08-05T12:28:30;4.55;;;2.17;;
11671;SDS011;5892;43.412;24.612;2022-08-05T12:31:00;3.83;;;2.28;;
11671;SDS011;5892;43.412;24.612;2022-08-05T12:33:28;6.78;;;1.95;;
11671;SDS011;5892;43.412;24.612;2022-08-05T12:35:56;2.25;;;2.05;;
11671;SDS011;5892;43.412;24.612;2022-08-05T12:38:23;2.47;;;2.00;;
11671;SDS011;5892;43.412;24.612;2022-08-05T12:40:50;2.20;;;1.88;;
11671;SDS011;5892;43.412;24.612;2022-08-05T12:43:18;5.13;;;2.65;;
11671;SDS011;5892;43.412;24.612;2022-08-05T12:45:53;4.45;;;2.17;;
11671;SDS011;5892;43.412;24.612;2022-08-05T12:48:21;4.45;;;1.88;;
11671;SDS011;5892;43.412;24.612;2022-08-05T12:53:41;2.75;;;2.00;;
11671;SDS011;5892;43.412;24.612;2022-08-05T12:56:14;2.42;;;2.03;;
11671;SDS011;5892;43.412;24.612;2022-08-05T12:58:43;3.15;;;1.95;;
11671;SDS011;5892;43.412;24.612;2022-08-05T13:01:13;2.40;;;1.88;;
11671;SDS011;5892;43.412;24.612;2022-08-05T13:03:40;4.22;;;2.00;;
11671;SDS011;5892;43.412;24.612;2022-08-05T13:06:10;2.20;;;2.00;;
11671;SDS011;5892;43.412;24.612;2022-08-05T13:08:38;5.80;;;2.20;;
11671;SDS011;5892;43.412;24.612;2022-08-05T13:11:05;2.78;;;2.03;;
11671;SDS011;5892;43.412;24.612;2022-08-05T13:13:33;4.22;;;2.03;;
11671;SDS011;5892;43.412;24.612;2022-08-05T13:16:10;2.03;;;1.80;;
11671;SDS011;5892;43.412;24.612;2022-08-05T13:18:49;2.63;;;2.17;;
11671;SDS011;5892;43.412;24.612;2022-08-05T13:21:16;2.45;;;1.98;;
11671;SDS011;5892;43.412;24.612;2022-08-05T13:23:43;3.75;;;2.10;;
11671;SDS011;5892;43.412;24.612;2022-08-05T13:26:10;2.72;;;1.90;;
11671;SDS011;5892;43.412;24.612;2022-08-05T13:28:37;3.72;;;1.80;;
11671;SDS011;5892;43.412;24.612;2022-08-05T13:31:04;5.72;;;2.03;;
11671;SDS011;5892;43.412;24.612;2022-08-05T13:33:31;4.20;;;2.10;;
11671;SDS011;5892;43.412;24.612;2022-08-05T13:35:59;7.22;;;2.30;;
11671;SDS011;5892;43.412;24.612;2022-08-05T13:38:26;6.28;;;2.00;;
11671;SDS011;5892;43.412;24.612;2022-08-05T13:40:53;6.65;;;2.17;;
11671;SDS011;5892;43.412;24.612;2022-08-05T13:43:20;3.47;;;2.05;;
11671;SDS011;5892;43.412;24.612;2022-08-05T13:45:47;3.00;;;2.05;;
11671;SDS011;5892;43.412;24.612;2022-08-05T13:48:14;3.28;;;1.73;;
11671;SDS011;5892;43.412;24.612;2022-08-05T13:50:41;3.05;;;2.10;;
11671;SDS011;5892;43.412;24.612;2022-08-05T13:53:10;2.97;;;1.80;;
11671;SDS011;5892;43.412;24.612;2022-08-05T13:55:37;4.57;;;2.08;;
11671;SDS011;5892;43.412;24.612;2022-08-05T13:58:04;5.07;;;1.92;;
11671;SDS011;5892;43.412;24.612;2022-08-05T14:00:31;2.30;;;1.90;;
11671;SDS011;5892;43.412;24.612;2022-08-05T14:03:00;4.88;;;2.15;;
11671;SDS011;5892;43.412;24.612;2022-08-05T14:05:27;2.92;;;1.90;;
11671;SDS011;5892;43.412;24.612;2022-08-05T14:07:53;4.30;;;2.13;;
11671;SDS011;5892;43.412;24.612;2022-08-05T14:10:22;6.93;;;2.10;;
11671;SDS011;5892;43.412;24.612;2022-08-05T14:12:50;4.72;;;1.98;;
11671;SDS011;5892;43.412;24.612;2022-08-05T14:15:17;2.28;;;1.85;;
11671;SDS011;5892;43.412;24.612;2022-08-05T14:17:44;2.50;;;2.22;;
11671;SDS011;5892;43.412;24.612;2022-08-05T14:20:11;5.53;;;2.00;;
11671;SDS011;5892;43.412;24.612;2022-08-05T14:22:39;8.00;;;2.13;;
11671;SDS011;5892;43.412;24.612;2022-08-05T14:25:08;2.97;;;1.83;;
11671;SDS011;5892;43.412;24.612;2022-08-05T14:27:36;2.78;;;2.00;;
11671;SDS011;5892;43.412;24.612;2022-08-05T14:30:04;2.45;;;1.80;;
11671;SDS011;5892;43.412;24.612;2022-08-05T14:32:31;2.08;;;1.80;;
11671;SDS011;5892;43.412;24.612;2022-08-05T14:34:58;3.00;;;2.15;;
11671;SDS011;5892;43.412;24.612;2022-08-05T14:37:25;1.80;;;1.70;;
11671;SDS011;5892;43.412;24.612;2022-08-05T14:39:52;2.10;;;1.90;;
11671;SDS011;5892;43.412;24.612;2022-08-05T14:42:19;2.22;;;1.80;;
11671;SDS011;5892;43.412;24.612;2022-08-05T14:44:48;4.07;;;1.90;;
11671;SDS011;5892;43.412;24.612;2022-08-05T14:47:15;2.88;;;1.80;;
11671;SDS011;5892;43.412;24.612;2022-08-05T14:49:42;3.78;;;2.15;;
11671;SDS011;5892;43.412;24.612;2022-08-05T14:52:09;4.65;;;1.90;;
11671;SDS011;5892;43.412;24.612;2022-08-05T14:54:36;4.45;;;1.90;;
11671;SDS011;5892;43.412;24.612;2022-08-05T14:57:03;2.22;;;1.95;;
11671;SDS011;5892;43.412;24.612;2022-08-05T14:59:30;3.88;;;1.73;;
11671;SDS011;5892;43.412;24.612;2022-08-05T15:01:59;2.80;;;2.00;;
11671;SDS011;5892;43.412;24.612;2022-08-05T15:04:26;2.78;;;1.80;;
11671;SDS011;5892;43.412;24.612;2022-08-05T15:06:53;2.40;;;1.70;;
11671;SDS011;5892;43.412;24.612;2022-08-05T15:09:20;2.50;;;1.83;;
11671;SDS011;5892;43.412;24.612;2022-08-05T15:11:47;5.70;;;2.10;;